sensor_id;sensor_type;location;lat;lon;timestamp;pressure;altitude;pressure_sealevel;temperature;humidity
53659;BME280;41524;35.624;139.698;2023-02-12T00:00:17;102249.00;;;12.37;30.26
53659;BME280;41524;35.624;139.698;2023-02-12T00:05:11;102257.00;;;10.55;33.73
53659;BME280;41524;35.624;139.698;2023-02-12T00:10:16;102268.00;;;12.05;32.68
53659;BME280;41524;35.624;139.698;2023-02-12T00:15:21;102265.00;;;10.39;34.69
53659;BME280;41524;35.624;139.698;2023-02-12T00:20:11;102262.00;;;10.66;34.56
53659;BME280;41524;35.624;139.698;2023-02-12T00:25:11;102260.00;;;11.48;33.35
53659;BME280;41524;35.624;139.698;2023-02-12T00:30:16;102258.00;;;11.52;33.90
53659;BME280;41524;35.624;139.698;2023-02-12T00:35:16;102260.00;;;11.70;33.29
53659;BME280;41524;35.624;139.698;2023-02-12T00:40:15;102262.00;;;11.29;34.12
53659;BME280;41524;35.624;139.698;2023-02-12T00:45:12;102251.00;;;10.46;34.75
53659;BME280;41524;35.624;139.698;2023-02-12T00:50:16;102251.00;;;12.13;32.58
53659;BME280;41524;35.624;139.698;2023-02-12T00:55:10;102232.00;;;11.18;34.68
53659;BME280;41524;35.624;139.698;2023-02-12T01:00:12;102210.00;;;10.88;33.60
53659;BME280;41524;35.624;139.698;2023-02-12T01:05:16;102187.00;;;12.77;32.54
53659;BME280;41524;35.624;139.698;2023-02-12T01:10:18;102179.00;;;12.10;32.74
53659;BME280;41524;35.624;139.698;2023-02-12T01:15:16;102168.00;;;11.68;34.22
53659;BME280;41524;35.624;139.698;2023-02-12T01:20:13;102149.00;;;12.97;32.45
53659;BME280;41524;35.624;139.698;2023-02-12T01:25:16;102131.00;;;12.25;33.79
53659;BME280;41524;35.624;139.698;2023-02-12T01:30:21;102108.00;;;10.26;37.75
53659;BME280;41524;35.624;139.698;2023-02-12T01:35:16;102103.00;;;11.64;34.27
53659;BME280;41524;35.624;139.698;2023-02-12T01:40:18;102090.00;;;11.78;33.97
53659;BME280;41524;35.624;139.698;2023-02-12T01:45:50;102082.00;;;12.01;34.42
53659;BME280;41524;35.624;139.698;2023-02-12T01:50:13;102080.00;;;11.08;36.46
53659;BME280;41524;35.624;139.698;2023-02-12T01:55:12;102070.00;;;10.73;38.14
53659;BME280;41524;35.624;139.698;2023-02-12T02:00:20;102049.00;;;10.40;38.06
53659;BME280;41524;35.624;139.698;2023-02-12T02:05:21;102017.00;;;11.83;35.57
53659;BME280;41524;35.624;139.698;2023-02-12T02:10:12;101999.00;;;13.25;34.86
53659;BME280;41524;35.624;139.698;2023-02-12T02:15:13;101971.00;;;12.18;37.40
53659;BME280;41524;35.624;139.698;2023-02-12T02:20:29;101957.00;;;12.05;38.80
53659;BME280;41524;35.624;139.698;2023-02-12T02:25:31;101949.00;;;11.85;39.75
53659;BME280;41524;35.624;139.698;2023-02-12T02:30:32;101938.00;;;12.17;39.45
53659;BME280;41524;35.624;139.698;2023-02-12T02:35:13;101917.00;;;12.17;41.42
53659;BME280;41524;35.624;139.698;2023-02-12T02:40:15;101910.00;;;12.07;40.98
53659;BME280;41524;35.624;139.698;2023-02-12T02:45:19;101891.00;;;11.77;41.32
53659;BME280;41524;35.624;139.698;2023-02-12T02:50:14;101890.00;;;12.32;41.86
53659;BME280;41524;35.624;139.698;2023-02-12T02:55:19;101879.00;;;12.16;42.69
53659;BME280;41524;35.624;139.698;2023-02-12T03:05:25;101868.00;;;12.59;42.71
53659;BME280;41524;35.624;139.698;2023-02-12T03:10:15;101857.00;;;13.52;41.39
53659;BME280;41524;35.624;139.698;2023-02-12T03:15:15;101840.00;;;12.85;42.29
53659;BME280;41524;35.624;139.698;2023-02-12T03:20:23;101821.00;;;13.75;42.99
53659;BME280;41524;35.624;139.698;2023-02-12T03:25:14;101813.00;;;13.60;42.84
53659;BME280;41524;35.624;139.698;2023-02-12T03:30:16;101802.00;;;13.93;42.12
53659;BME280;41524;35.624;139.698;2023-02-12T03:35:15;101793.00;;;14.28;43.79
53659;BME280;41524;35.624;139.698;2023-02-12T03:40:16;101792.00;;;13.77;44.37
53659;BME280;41524;35.624;139.698;2023-02-12T03:45:19;101771.00;;;14.53;42.79
53659;BME280;41524;35.624;139.698;2023-02-12T03:50:16;101770.00;;;13.65;45.15
53659;BME280;41524;35.624;139.698;2023-02-12T03:55:11;101772.00;;;14.44;43.36
53659;BME280;41524;35.624;139.698;2023-02-12T04:00:19;101775.00;;;13.67;44.53
53659;BME280;41524;35.624;139.698;2023-02-12T04:05:21;101766.00;;;12.72;45.22
53659;BME280;41524;35.624;139.698;2023-02-12T04:10:11;101745.00;;;13.01;45.11
53659;BME280;41524;35.624;139.698;2023-02-12T04:15:26;101732.00;;;13.47;44.81
53659;BME280;41524;35.624;139.698;2023-02-12T04:20:20;101731.00;;;14.37;43.69
53659;BME280;41524;35.624;139.698;2023-02-12T04:25:20;101736.00;;;13.44;44.54
53659;BME280;41524;35.624;139.698;2023-02-12T04:30:17;101740.00;;;14.65;42.92
53659;BME280;41524;35.624;139.698;2023-02-12T04:35:18;101741.00;;;15.27;42.77
53659;BME280;41524;35.624;139.698;2023-02-12T04:40:17;101729.00;;;14.38;44.26
53659;BME280;41524;35.624;139.698;2023-02-12T04:45:11;101732.00;;;15.95;41.47
53659;BME280;41524;35.624;139.698;2023-02-12T04:50:21;101718.00;;;15.17;42.77
53659;BME280;41524;35.624;139.698;2023-02-12T04:55:15;101716.00;;;14.19;44.18
53659;BME280;41524;35.624;139.698;2023-02-12T05:00:14;101704.00;;;13.85;44.78
53659;BME280;41524;35.624;139.698;2023-02-12T05:05:16;101680.00;;;14.58;44.63
53659;BME280;41524;35.624;139.698;2023-02-12T05:10:12;101663.00;;;13.79;45.61
53659;BME280;41524;35.624;139.698;2023-02-12T05:15:12;101670.00;;;13.79;46.03
53659;BME280;41524;35.624;139.698;2023-02-12T05:20:12;101667.00;;;13.67;46.54
53659;BME280;41524;35.624;139.698;2023-02-12T05:25:17;101668.00;;;13.93;46.20
53659;BME280;41524;35.624;139.698;2023-02-12T05:30:22;101680.00;;;12.83;47.77
53659;BME280;41524;35.624;139.698;2023-02-12T05:35:12;101686.00;;;14.59;44.77
53659;BME280;41524;35.624;139.698;2023-02-12T05:40:13;101693.00;;;12.92;48.24
53659;BME280;41524;35.624;139.698;2023-02-12T05:45:15;101695.00;;;13.89;46.26
53659;BME280;41524;35.624;139.698;2023-02-12T05:50:11;101688.00;;;11.93;50.22
53659;BME280;41524;35.624;139.698;2023-02-12T05:55:17;101684.00;;;12.76;49.72
53659;BME280;41524;35.624;139.698;2023-02-12T06:00:12;101663.00;;;12.94;48.89
53659;BME280;41524;35.624;139.698;2023-02-12T06:05:20;101654.00;;;12.46;49.91
53659;BME280;41524;35.624;139.698;2023-02-12T06:10:11;101651.00;;;13.24;48.85
53659;BME280;41524;35.624;139.698;2023-02-12T06:15:10;101651.00;;;13.43;48.95
53659;BME280;41524;35.624;139.698;2023-02-12T06:20:16;101653.00;;;12.02;51.82
53659;BME280;41524;35.624;139.698;2023-02-12T06:25:15;101647.00;;;12.31;51.58
53659;BME280;41524;35.624;139.698;2023-02-12T06:30:17;101632.00;;;12.09;52.08
53659;BME280;41524;35.624;139.698;2023-02-12T06:35:16;101627.00;;;11.96;52.40
53659;BME280;41524;35.624;139.698;2023-02-12T06:40:15;101617.00;;;12.46;51.58
53659;BME280;41524;35.624;139.698;2023-02-12T06:45:11;101623.00;;;12.18;51.82
53659;BME280;41524;35.624;139.698;2023-02-12T06:50:11;101633.00;;;12.49;52.27
53659;BME280;41524;35.624;139.698;2023-02-12T06:55:12;101650.00;;;12.59;52.16
53659;BME280;41524;35.624;139.698;2023-02-12T07:00:16;101668.00;;;11.58;54.89
53659;BME280;41524;35.624;139.698;2023-02-12T07:05:10;101662.00;;;12.17;54.71
53659;BME280;41524;35.624;139.698;2023-02-12T07:10:16;101660.00;;;12.24;54.96
53659;BME280;41524;35.624;139.698;2023-02-12T07:15:11;101671.00;;;12.82;54.48
53659;BME280;41524;35.624;139.698;2023-02-12T07:20:11;101676.00;;;12.54;55.74
53659;BME280;41524;35.624;139.698;2023-02-12T07:25:10;101677.00;;;11.01;59.96
53659;BME280;41524;35.624;139.698;2023-02-12T07:30:16;101676.00;;;11.54;59.74
53659;BME280;41524;35.624;139.698;2023-02-12T07:35:13;101684.00;;;11.21;60.77
53659;BME280;41524;35.624;139.698;2023-02-12T07:40:11;101683.00;;;11.16;60.74
53659;BME280;41524;35.624;139.698;2023-02-12T07:45:12;101669.00;;;12.46;57.75
53659;BME280;41524;35.624;139.698;2023-02-12T07:50:11;101685.00;;;11.47;60.90
53659;BME280;41524;35.624;139.698;2023-02-12T07:55:10;101683.00;;;11.78;60.12
53659;BME280;41524;35.624;139.698;2023-02-12T08:00:13;101689.00;;;11.50;60.84
53659;BME280;41524;35.624;139.698;2023-02-12T08:05:16;101688.00;;;11.08;61.77
53659;BME280;41524;35.624;139.698;2023-02-12T08:10:12;101687.00;;;11.48;61.20
53659;BME280;41524;35.624;139.698;2023-02-12T08:15:15;101688.00;;;12.16;59.07
53659;BME280;41524;35.624;139.698;2023-02-12T08:20:12;101694.00;;;11.59;60.16
53659;BME280;41524;35.624;139.698;2023-02-12T08:25:11;101690.00;;;11.53;59.94
53659;BME280;41524;35.624;139.698;2023-02-12T08:30:12;101678.00;;;11.05;60.98
53659;BME280;41524;35.624;139.698;2023-02-12T08:35:11;101671.00;;;11.68;59.50
53659;BME280;41524;35.624;139.698;2023-02-12T08:40:12;101654.00;;;12.18;58.00
53659;BME280;41524;35.624;139.698;2023-02-12T08:45:11;101644.00;;;12.33;57.28
53659;BME280;41524;35.624;139.698;2023-02-12T08:50:12;101640.00;;;11.89;58.27
53659;BME280;41524;35.624;139.698;2023-02-12T08:55:15;101649.00;;;11.64;57.97
53659;BME280;41524;35.624;139.698;2023-02-12T09:00:12;101634.00;;;12.20;56.75
53659;BME280;41524;35.624;139.698;2023-02-12T09:05:13;101631.00;;;11.73;57.44
53659;BME280;41524;35.624;139.698;2023-02-12T09:10:26;101632.00;;;12.21;56.46
53659;BME280;41524;35.624;139.698;2023-02-12T09:15:10;101639.00;;;12.18;55.79
53659;BME280;41524;35.624;139.698;2023-02-12T09:20:16;101633.00;;;11.88;55.66
53659;BME280;41524;35.624;139.698;2023-02-12T09:25:16;101629.00;;;11.82;55.01
53659;BME280;41524;35.624;139.698;2023-02-12T09:30:12;101621.00;;;12.15;55.30
53659;BME280;41524;35.624;139.698;2023-02-12T09:35:11;101605.00;;;11.97;54.46
53659;BME280;41524;35.624;139.698;2023-02-12T09:40:26;101612.00;;;12.33;53.67
53659;BME280;41524;35.624;139.698;2023-02-12T09:45:15;101604.00;;;12.09;53.84
53659;BME280;41524;35.624;139.698;2023-02-12T09:50:35;101598.00;;;12.46;54.92
53659;BME280;41524;35.624;139.698;2023-02-12T09:55:18;101584.00;;;11.98;54.76
53659;BME280;41524;35.624;139.698;2023-02-12T10:00:21;101594.00;;;12.16;54.94
53659;BME280;41524;35.624;139.698;2023-02-12T10:05:16;101590.00;;;12.42;55.34
53659;BME280;41524;35.624;139.698;2023-02-12T10:10:21;101590.00;;;12.39;54.23
53659;BME280;41524;35.624;139.698;2023-02-12T10:15:31;101593.00;;;13.04;52.77
53659;BME280;41524;35.624;139.698;2023-02-12T10:20:45;101586.00;;;12.60;54.51
53659;BME280;41524;35.624;139.698;2023-02-12T10:25:19;101589.00;;;12.45;54.74
53659;BME280;41524;35.624;139.698;2023-02-12T10:30:20;101590.00;;;12.32;54.86
53659;BME280;41524;35.624;139.698;2023-02-12T10:35:20;101597.00;;;12.86;54.77
53659;BME280;41524;35.624;139.698;2023-02-12T10:40:18;101605.00;;;12.46;55.60
53659;BME280;41524;35.624;139.698;2023-02-12T10:45:14;101611.00;;;12.92;55.09
53659;BME280;41524;35.624;139.698;2023-02-12T10:50:23;101611.00;;;14.42;52.26
53659;BME280;41524;35.624;139.698;2023-02-12T10:55:25;101609.00;;;14.40;52.36
53659;BME280;41524;35.624;139.698;2023-02-12T11:00:26;101599.00;;;13.89;52.96
53659;BME280;41524;35.624;139.698;2023-02-12T11:05:24;101607.00;;;12.85;54.18
53659;BME280;41524;35.624;139.698;2023-02-12T11:10:26;101613.00;;;13.98;52.18
53659;BME280;41524;35.624;139.698;2023-02-12T11:15:24;101613.00;;;12.69;54.58
53659;BME280;41524;35.624;139.698;2023-02-12T11:20:28;101603.00;;;12.81;54.32
53659;BME280;41524;35.624;139.698;2023-02-12T11:25:15;101595.00;;;11.99;55.59
53659;BME280;41524;35.624;139.698;2023-02-12T11:30:19;101594.00;;;12.54;55.60
53659;BME280;41524;35.624;139.698;2023-02-12T11:35:23;101605.00;;;12.09;55.94
53659;BME280;41524;35.624;139.698;2023-02-12T11:40:17;101618.00;;;11.42;56.10
53659;BME280;41524;35.624;139.698;2023-02-12T11:45:27;101637.00;;;12.62;51.65
53659;BME280;41524;35.624;139.698;2023-02-12T11:50:27;101636.00;;;11.65;54.12
53659;BME280;41524;35.624;139.698;2023-02-12T11:55:22;101630.00;;;11.76;53.90
53659;BME280;41524;35.624;139.698;2023-02-12T12:00:16;101622.00;;;11.91;51.66
53659;BME280;41524;35.624;139.698;2023-02-12T12:05:14;101621.00;;;11.59;51.00
53659;BME280;41524;35.624;139.698;2023-02-12T12:10:22;101600.00;;;11.06;52.10
53659;BME280;41524;35.624;139.698;2023-02-12T12:15:25;101612.00;;;10.94;53.08
53659;BME280;41524;35.624;139.698;2023-02-12T12:20:14;101622.00;;;10.89;51.58
53659;BME280;41524;35.624;139.698;2023-02-12T12:25:23;101620.00;;;10.81;51.55
53659;BME280;41524;35.624;139.698;2023-02-12T12:30:21;101612.00;;;10.48;51.89
53659;BME280;41524;35.624;139.698;2023-02-12T12:35:23;101596.00;;;11.29;49.93
53659;BME280;41524;35.624;139.698;2023-02-12T12:40:24;101592.00;;;11.49;49.22
53659;BME280;41524;35.624;139.698;2023-02-12T12:45:27;101581.00;;;11.67;48.66
53659;BME280;41524;35.624;139.698;2023-02-12T12:50:27;101574.00;;;10.77;49.56
53659;BME280;41524;35.624;139.698;2023-02-12T12:55:26;101573.00;;;10.31;51.04
53659;BME280;41524;35.624;139.698;2023-02-12T13:00:24;101564.00;;;10.64;49.93
53659;BME280;41524;35.624;139.698;2023-02-12T13:05:58;101560.00;;;10.38;50.72
53659;BME280;41524;35.624;139.698;2023-02-12T13:10:23;101563.00;;;9.50;52.45
53659;BME280;41524;35.624;139.698;2023-02-12T13:15:24;101561.00;;;9.82;51.48
53659;BME280;41524;35.624;139.698;2023-02-12T13:20:22;101542.00;;;10.58;49.94
53659;BME280;41524;35.624;139.698;2023-02-12T13:25:28;101521.00;;;10.30;50.00
53659;BME280;41524;35.624;139.698;2023-02-12T13:30:19;101515.00;;;11.03;49.47
53659;BME280;41524;35.624;139.698;2023-02-12T13:35:17;101514.00;;;10.75;49.36
53659;BME280;41524;35.624;139.698;2023-02-12T13:40:17;101527.00;;;9.24;52.16
53659;BME280;41524;35.624;139.698;2023-02-12T13:45:26;101530.00;;;9.78;51.10
53659;BME280;41524;35.624;139.698;2023-02-12T13:50:27;101544.00;;;9.76;51.27
53659;BME280;41524;35.624;139.698;2023-02-12T13:55:23;101549.00;;;9.42;51.56
53659;BME280;41524;35.624;139.698;2023-02-12T14:01:12;101547.00;;;9.77;51.43
53659;BME280;41524;35.624;139.698;2023-02-12T14:05:22;101553.00;;;9.10;52.59
53659;BME280;41524;35.624;139.698;2023-02-12T14:10:23;101560.00;;;10.42;49.95
53659;BME280;41524;35.624;139.698;2023-02-12T14:15:23;101555.00;;;8.97;52.23
53659;BME280;41524;35.624;139.698;2023-02-12T14:20:26;101544.00;;;9.25;52.34
53659;BME280;41524;35.624;139.698;2023-02-12T14:25:36;101543.00;;;9.50;51.82
53659;BME280;41524;35.624;139.698;2023-02-12T14:30:32;101524.00;;;8.63;52.62
53659;BME280;41524;35.624;139.698;2023-02-12T14:35:33;101501.00;;;9.13;51.88
53659;BME280;41524;35.624;139.698;2023-02-12T14:40:40;101468.00;;;9.51;51.42
53659;BME280;41524;35.624;139.698;2023-02-12T14:45:32;101450.00;;;9.74;50.52
53659;BME280;41524;35.624;139.698;2023-02-12T14:50:17;101443.00;;;9.71;50.54
53659;BME280;41524;35.624;139.698;2023-02-12T14:55:26;101444.00;;;9.46;50.82
53659;BME280;41524;35.624;139.698;2023-02-12T15:00:24;101457.00;;;9.81;50.30
53659;BME280;41524;35.624;139.698;2023-02-12T15:05:17;101463.00;;;9.57;50.55
53659;BME280;41524;35.624;139.698;2023-02-12T15:10:16;101458.00;;;8.58;51.81
53659;BME280;41524;35.624;139.698;2023-02-12T15:15:22;101448.00;;;8.88;51.43
53659;BME280;41524;35.624;139.698;2023-02-12T15:20:22;101440.00;;;8.86;51.52
53659;BME280;41524;35.624;139.698;2023-02-12T15:25:23;101428.00;;;8.99;50.26
53659;BME280;41524;35.624;139.698;2023-02-12T15:30:16;101418.00;;;9.47;49.05
53659;BME280;41524;35.624;139.698;2023-02-12T15:35:25;101405.00;;;9.90;48.42
53659;BME280;41524;35.624;139.698;2023-02-12T15:40:19;101400.00;;;9.42;49.08
53659;BME280;41524;35.624;139.698;2023-02-12T15:45:22;101408.00;;;8.75;50.11
53659;BME280;41524;35.624;139.698;2023-02-12T15:50:16;101397.00;;;9.12;49.10
53659;BME280;41524;35.624;139.698;2023-02-12T15:55:16;101385.00;;;9.30;48.29
53659;BME280;41524;35.624;139.698;2023-02-12T16:00:36;101383.00;;;9.19;48.23
53659;BME280;41524;35.624;139.698;2023-02-12T16:05:16;101375.00;;;9.23;48.21
53659;BME280;41524;35.624;139.698;2023-02-12T16:10:14;101353.00;;;8.82;48.73
53659;BME280;41524;35.624;139.698;2023-02-12T16:15:25;101349.00;;;10.21;45.75
53659;BME280;41524;35.624;139.698;2023-02-12T16:20:22;101335.00;;;9.91;46.17
53659;BME280;41524;35.624;139.698;2023-02-12T16:25:16;101323.00;;;9.09;47.46
53659;BME280;41524;35.624;139.698;2023-02-12T16:30:25;101325.00;;;9.91;45.23
53659;BME280;41524;35.624;139.698;2023-02-12T16:35:27;101325.00;;;9.57;44.07
53659;BME280;41524;35.624;139.698;2023-02-12T16:40:34;101319.00;;;10.38;42.93
53659;BME280;41524;35.624;139.698;2023-02-12T16:45:42;101324.00;;;9.51;44.18
53659;BME280;41524;35.624;139.698;2023-02-12T16:55:15;101300.00;;;9.26;43.70
53659;BME280;41524;35.624;139.698;2023-02-12T17:00:17;101295.00;;;9.56;43.09
53659;BME280;41524;35.624;139.698;2023-02-12T17:05:11;101312.00;;;9.71;43.31
53659;BME280;41524;35.624;139.698;2023-02-12T17:10:13;101298.00;;;8.71;45.21
53659;BME280;41524;35.624;139.698;2023-02-12T17:15:23;101285.00;;;9.55;44.66
53659;BME280;41524;35.624;139.698;2023-02-12T17:20:11;101280.00;;;10.10;43.93
53659;BME280;41524;35.624;139.698;2023-02-12T17:25:12;101284.00;;;9.52;44.68
53659;BME280;41524;35.624;139.698;2023-02-12T17:30:15;101277.00;;;8.81;45.53
53659;BME280;41524;35.624;139.698;2023-02-12T17:35:15;101261.00;;;9.80;44.37
53659;BME280;41524;35.624;139.698;2023-02-12T17:40:11;101273.00;;;9.43;45.78
53659;BME280;41524;35.624;139.698;2023-02-12T17:45:17;101264.00;;;9.64;45.42
53659;BME280;41524;35.624;139.698;2023-02-12T17:50:17;101266.00;;;9.27;46.60
53659;BME280;41524;35.624;139.698;2023-02-12T17:55:10;101268.00;;;8.82;47.58
53659;BME280;41524;35.624;139.698;2023-02-12T18:00:12;101262.00;;;9.16;47.28
53659;BME280;41524;35.624;139.698;2023-02-12T18:05:15;101237.00;;;8.84;46.97
53659;BME280;41524;35.624;139.698;2023-02-12T18:10:11;101236.00;;;8.81;47.57
53659;BME280;41524;35.624;139.698;2023-02-12T18:15:11;101235.00;;;8.21;47.64
53659;BME280;41524;35.624;139.698;2023-02-12T18:20:12;101224.00;;;9.19;46.66
53659;BME280;41524;35.624;139.698;2023-02-12T18:25:11;101231.00;;;8.42;47.61
53659;BME280;41524;35.624;139.698;2023-02-12T18:30:12;101207.00;;;8.81;47.02
53659;BME280;41524;35.624;139.698;2023-02-12T18:35:12;101189.00;;;8.91;47.05
53659;BME280;41524;35.624;139.698;2023-02-12T18:40:12;101184.00;;;9.02;46.49
53659;BME280;41524;35.624;139.698;2023-02-12T18:45:12;101197.00;;;9.46;46.16
53659;BME280;41524;35.624;139.698;2023-02-12T18:50:13;101191.00;;;8.69;47.08
53659;BME280;41524;35.624;139.698;2023-02-12T18:55:11;101181.00;;;9.44;46.04
53659;BME280;41524;35.624;139.698;2023-02-12T19:00:12;101186.00;;;9.29;46.00
53659;BME280;41524;35.624;139.698;2023-02-12T19:05:11;101159.00;;;9.33;46.15
53659;BME280;41524;35.624;139.698;2023-02-12T19:10:11;101170.00;;;9.73;45.19
53659;BME280;41524;35.624;139.698;2023-02-12T19:15:11;101173.00;;;9.73;45.62
53659;BME280;41524;35.624;139.698;2023-02-12T19:20:12;101141.00;;;10.08;45.07
53659;BME280;41524;35.624;139.698;2023-02-12T19:25:12;101147.00;;;9.97;44.76
53659;BME280;41524;35.624;139.698;2023-02-12T19:30:11;101147.00;;;9.93;45.56
53659;BME280;41524;35.624;139.698;2023-02-12T19:35:10;101116.00;;;9.44;47.38
53659;BME280;41524;35.624;139.698;2023-02-12T19:40:11;101139.00;;;9.65;48.00
53659;BME280;41524;35.624;139.698;2023-02-12T19:45:11;101163.00;;;9.31;49.42
53659;BME280;41524;35.624;139.698;2023-02-12T19:50:11;101165.00;;;8.70;49.62
53659;BME280;41524;35.624;139.698;2023-02-12T19:55:10;101122.00;;;8.04;51.36
53659;BME280;41524;35.624;139.698;2023-02-12T20:00:14;101124.00;;;7.91;52.31
53659;BME280;41524;35.624;139.698;2023-02-12T20:05:11;101095.00;;;8.11;51.47
53659;BME280;41524;35.624;139.698;2023-02-12T20:10:12;101086.00;;;8.89;51.51
53659;BME280;41524;35.624;139.698;2023-02-12T20:15:11;101084.00;;;9.94;49.70
53659;BME280;41524;35.624;139.698;2023-02-12T20:20:12;101092.00;;;8.65;51.32
53659;BME280;41524;35.624;139.698;2023-02-12T20:25:15;101107.00;;;9.37;50.53
53659;BME280;41524;35.624;139.698;2023-02-12T20:30:11;101115.00;;;8.61;51.63
53659;BME280;41524;35.624;139.698;2023-02-12T20:35:11;101117.00;;;9.81;50.08
53659;BME280;41524;35.624;139.698;2023-02-12T20:40:11;101116.00;;;9.55;51.16
53659;BME280;41524;35.624;139.698;2023-02-12T20:45:11;101099.00;;;8.74;52.87
53659;BME280;41524;35.624;139.698;2023-02-12T20:50:11;101088.00;;;8.95;52.29
53659;BME280;41524;35.624;139.698;2023-02-12T20:55:11;101077.00;;;8.56;54.19
53659;BME280;41524;35.624;139.698;2023-02-12T21:00:12;101073.00;;;8.47;53.71
53659;BME280;41524;35.624;139.698;2023-02-12T21:05:13;101069.00;;;8.43;54.63
53659;BME280;41524;35.624;139.698;2023-02-12T21:10:10;101079.00;;;8.95;54.12
53659;BME280;41524;35.624;139.698;2023-02-12T21:15:12;101067.00;;;8.95;54.02
53659;BME280;41524;35.624;139.698;2023-02-12T21:20:11;101053.00;;;9.54;53.39
53659;BME280;41524;35.624;139.698;2023-02-12T21:25:14;101047.00;;;9.46;53.88
53659;BME280;41524;35.624;139.698;2023-02-12T21:30:12;101059.00;;;9.10;54.96
53659;BME280;41524;35.624;139.698;2023-02-12T21:35:15;101073.00;;;8.98;55.34
53659;BME280;41524;35.624;139.698;2023-02-12T21:40:11;101082.00;;;9.04;55.79
53659;BME280;41524;35.624;139.698;2023-02-12T21:45:16;101052.00;;;9.00;57.84
53659;BME280;41524;35.624;139.698;2023-02-12T21:50:11;101059.00;;;9.29;56.06
53659;BME280;41524;35.624;139.698;2023-02-12T21:55:15;101059.00;;;8.71;57.08
53659;BME280;41524;35.624;139.698;2023-02-12T22:00:16;101032.00;;;9.86;55.42
53659;BME280;41524;35.624;139.698;2023-02-12T22:05:15;101046.00;;;9.85;54.54
53659;BME280;41524;35.624;139.698;2023-02-12T22:10:19;101058.00;;;8.88;56.92
53659;BME280;41524;35.624;139.698;2023-02-12T22:15:11;101033.00;;;9.68;56.27
53659;BME280;41524;35.624;139.698;2023-02-12T22:20:12;101059.00;;;9.03;57.59
53659;BME280;41524;35.624;139.698;2023-02-12T22:25:15;101036.00;;;9.26;56.61
53659;BME280;41524;35.624;139.698;2023-02-12T22:30:18;101019.00;;;9.72;56.45
53659;BME280;41524;35.624;139.698;2023-02-12T22:35:11;101035.00;;;9.63;56.75
53659;BME280;41524;35.624;139.698;2023-02-12T22:40:16;101031.00;;;8.84;58.82
53659;BME280;41524;35.624;139.698;2023-02-12T22:45:13;101018.00;;;9.61;57.05
53659;BME280;41524;35.624;139.698;2023-02-12T22:50:11;101052.00;;;8.78;59.24
53659;BME280;41524;35.624;139.698;2023-02-12T22:55:22;101057.00;;;10.47;55.94
53659;BME280;41524;35.624;139.698;2023-02-12T23:00:16;101053.00;;;8.81;59.42
53659;BME280;41524;35.624;139.698;2023-02-12T23:05:11;101050.00;;;9.48;58.10
53659;BME280;41524;35.624;139.698;2023-02-12T23:10:15;101050.00;;;8.88;58.62
53659;BME280;41524;35.624;139.698;2023-02-12T23:15:16;101026.00;;;8.63;60.08
53659;BME280;41524;35.624;139.698;2023-02-12T23:20:13;101009.00;;;9.17;58.95
53659;BME280;41524;35.624;139.698;2023-02-12T23:25:11;100999.00;;;9.43;57.58
53659;BME280;41524;35.624;139.698;2023-02-12T23:35:11;101003.00;;;9.07;58.67
53659;BME280;41524;35.624;139.698;2023-02-12T23:40:18;101003.00;;;9.35;58.17
53659;BME280;41524;35.624;139.698;2023-02-12T23:45:15;101000.00;;;9.16;58.37
53659;BME280;41524;35.624;139.698;2023-02-12T23:50:15;100995.00;;;8.68;59.63
53659;BME280;41524;35.624;139.698;2023-02-12T23:55:16;100990.00;;;9.30;58.61
